National Weather Service United States Department of Commerce

James - Latest Conditions

Created: 09/01/2026 18:38
LID Agency ID Station Name Date/Time Stage (ft) Flow (cfs) Longterm Mean Flow (cfs) Peak Flow (cfs) Peak Stage (ft)
--- 06467600 James R Nr Manfred, ND 06/17/2021 07:00 -1.38 0 --- 2,700 ---
GCEN8 06468170 James R Nr Grace City, ND 09/01/2026 18:15 3.93 1 --- 8,140 17.74
KSLN8 06468250 James R Abv Arrowwood Lk Nr Kensal, ND 09/01/2026 18:15 0.52 1 --- 8,470 16.69
--- 06469015 James R On 5th St In Jamestown, ND 06/01/2020 00:45 92.25 --- --- --- ---
--- 06469350 Pipestem Cr On Us Rt 52 W Of Carrington, ND 06/01/2020 00:45 36.98 --- --- --- ---
PGEN8 06469400 Pipestem Cr Nr Pingree, ND 09/01/2026 18:15 5.22 14 --- 9,200 13.15
--- 06469500 Pipestem Cr Nr Buchanan, ND 09/01/2026 18:00 2.84 3 --- 6,080 ---
JMSN8 06470000 James R @ Jamestown, ND 09/01/2026 18:15 3.29 25 --- 6,390 16.94
--- 06470425 James R On State Hwy 46 Nr Adrian, ND 09/01/2026 18:00 18.49 1,890 --- --- ---
--- 06470475 James R @ Cnty Rd 34 Nr Grand Rapids, ND 06/01/2020 00:45 8.04 --- --- --- ---
LAMN8 06470500 James R @ Lamoure, ND 09/01/2026 18:15 7.28 65 --- 12,200 17.56
BCKN8 06470800 Bear Cr Nr Oakes, ND 09/01/2026 17:45 5.36 0 --- 4,590 ---
CMBS2 06471000 James R @ Columbia, SD 09/01/2026 18:00 4.27 20 --- 9,620 19.81
--- 06471065 Elm R Nr Frederick, SD 09/01/2026 17:30 5.04 --- --- 7,110 19.56
MAPS2 06471200 Maple R @ Nd-sd State Line 09/01/2026 17:45 2.02 13 --- 7,000 16.19
WESS2 06471500 Elm R @ Westport, SD 09/01/2026 18:00 4.15 8 --- 12,600 22.63
--- 06471510 Elm R Nr Ordway, SD 09/01/2026 17:45 3.84 --- --- 15,000 15.88
--- 06471550 James R Blw Columbia, SD 09/30/1994 23:00 --- 216 --- 2,100 ---
--- 06471770 Moccasin Cr @ Aberdeen, SD 09/01/2026 17:45 1.73 --- --- 300 8.00
AFCS2 06471800 Foot Cr Nr Aberdeen, SD 09/01/2026 17:45 3.97 0 --- 1,450 10.38
--- 06471875 Moccasin Cr Nr Aberdeen, SD 09/01/2026 17:30 13.76 --- --- --- ---
SFDS2 06472000 James R Nr Stratford, SD 09/01/2026 17:45 6.59 124 --- 9,910 21.57
ATNS2 06473000 James R @ Ashton, SD 09/01/2026 17:45 4.34 194 --- 9,520 26.64
RFDS2 06475000 James R Nr Redfield, SD 09/01/2026 17:45 4.21 209 --- 17,000 31.10
HURS2 06476000 James R @ Huron, SD 09/01/2026 18:00 9.46 324 --- 23,400 21.28
FORS2 06477000 James R Nr Forestburg, SD 09/01/2026 18:15 5.75 368 --- 28,400 20.61
MTVS2 06477500 Firesteel Cr Nr Mount Vernon, SD 09/01/2026 18:15 1.97 0 --- 7,420 17.12
JRMS2 06478000 James R Nr Mitchell, SD 09/01/2026 17:45 10.71 393 --- 28,400 25.33
SCOS2 06478500 James R Nr Scotland, SD 09/01/2026 18:30 4.59 236 --- 59,000 22.22
YNNS2 06478513 James R Nr Yankton, SD 09/01/2026 18:00 3.63 229 --- 47,200 27.84
--- 06478540 Lil Vermillion R Nr Salem,sd 09/30/2008 23:45 --- 0 --- 3,300 11.95
VRPS2 06478600 E Frk Vermillion R Nr Parker, SD 09/01/2026 18:15 4.94 2 --- 6,540 17.60
PKRS2 06478690 W Frk Vermillion R Nr Parker, SD 09/01/2026 18:15 1.11 Backwater --- 17,500 15.51
VERS2 06479010 Vermillion R Nr Vermillion,sd 09/01/2026 18:30 1.25 5 --- 35,300 33.15
--- 06479159 Blue Dog Lk Inflow Owens Cr Nr Waubay, SD 09/30/2003 23:45 --- 5 --- 685 ---